Ever Decent — 9V7952 — position and weather

sailwx.info

Track history (hours):
 
Tides and Currents Weather Stations Pressure Air Temp Water Temp Dewpoint Dewpoint Depression Visibility Wind Speed Wind Dir Waves Ship Positions

Ever Decent

Last reported at 2014-Aug-27 00:00 UTC. Time now 2014-Aug-27 19:14 UTC.
Position N 36°42' E 133°24'.

Length 294 m; draft 12 m.

Type: Cargo ship. MMSI: 564904000.

Wind from 050 at 13 knots

Waves 2.0 meters (7 feet), 5 second period

Barometer 1015.0 mb
Air temperature 24.0 ° C
Visibility: greater than 5.4 NM
Dewpoint 21.1 ° C
Water temperature 20.0 ° C

Date/timePositionNaut miles runAvg speedWind from/ knotsBaromVisibWave heightAir tempDewpointWater temp
2014-Aug-27 00:00N 36°42' E 133°24'60517.5 050 / 131015.0 5.4 2.024.021.120.0
2014-Aug-25 13:29N 30°54' E 123°29'1617.1
2014-Aug-25 12:32N 30°42' E 123°15'1515.5
2014-Aug-25 11:33N 30°40' E 122°58'1414.1
2014-Aug-25 10:33N 30°29' E 122°47'1514.9
2014-Aug-25 09:33N 30°30' E 122°29'1514.2
2014-Aug-25 08:32N 30°33' E 122°13'8 8.1
2014-Aug-25 07:33N 30°37' E 122°04'0 0.0
2014-Aug-25 06:26N 30°37' E 122°04'0 0.0
2014-Aug-25 04:24N 30°37' E 122°04'0 0.0
2014-Aug-25 01:21N 30°37' E 122°04'0 0.0
2014-Aug-24 23:13N 30°37' E 122°04'0 0.0
2014-Aug-24 19:24N 30°37' E 122°04'4 4.3
2014-Aug-24 18:32N 30°35' E 122°08'9 9.0
2014-Aug-24 17:33N 30°33' E 122°18'1010.0
2014-Aug-24 16:33N 30°30' E 122°29'3 2.2
2014-Aug-24 15:24N 30°28' E 122°31'0 0.2
2014-Aug-24 14:30N 30°28' E 122°31'0 0.1
2014-Aug-24 13:30N 30°28' E 122°31'0 0.1
2014-Aug-24 12:24N 30°28' E 122°31'0 0.1
2014-Aug-24 11:24N 30°28' E 122°31'0 0.3
2014-Aug-24 10:30N 30°28' E 122°31'0 0.1
2014-Aug-24 09:18N 30°28' E 122°31'0 0.0
2014-Aug-24 08:30N 30°28' E 122°31'0 0.0
2014-Aug-24 07:18N 30°28' E 122°31'0 0.0
2014-Aug-24 06:30N 30°28' E 122°31'0 0.1
2014-Aug-24 05:30N 30°28' E 122°31'0 0.1
2014-Aug-24 04:30N 30°28' E 122°31'0 0.3
2014-Aug-24 03:24N 30°28' E 122°31'0 0.1
2014-Aug-24 02:33N 30°28' E 122°31'0 0.1
2014-Aug-24 01:33N 30°28' E 122°31'2 1.7
2014-Aug-24 00:33N 30°29' E 122°33'1212.3
2014-Aug-23 23:33N 30°26' E 122°47'1313.5
2014-Aug-23 22:33N 30°18' E 122°59'1210.7
2014-Aug-23 21:27N 30°07' E 122°60'1112.1
2014-Aug-23 20:33N 29°56' E 122°56'1312.5
2014-Aug-23 19:30N 29°46' E 122°47'39 2.5
2014-Aug-23 03:34N 29°53' E 122°03'7 7.4
2014-Aug-23 02:33N 29°53' E 122°11'1110.7
2014-Aug-23 01:33N 29°45' E 122°20'6 6.5
2014-Aug-23 00:33N 29°45' E 122°27'7 6.5
2014-Aug-22 23:33N 29°40' E 122°32'8 8.0
2014-Aug-22 22:32N 29°32' E 122°33'1313.8
2014-Aug-22 21:33N 29°18' E 122°34'14112.7
2014-Aug-22 10:28N 27°09' E 121°29'13615.3
2014-Aug-22 01:33N 25°14' E 120°09'4214.2
2014-Aug-21 22:33N 24°41' E 119°39'4514.5
2014-Aug-21 19:27N 24°11' E 119°02'1314.5
2014-Aug-21 18:33N 24°03' E 118°51'1414.5
2014-Aug-21 17:33N 23°53' E 118°39'1414.1
2014-Aug-21 16:33N 23°44' E 118°27'1313.4
2014-Aug-21 15:33N 23°35' E 118°17'1513.9
2014-Aug-21 14:27N 23°25' E 118°04'1213.6
2014-Aug-21 13:33N 23°18' E 117°53'3114.7
2014-Aug-21 11:25N 23°01' E 117°25'1814.5
2014-Aug-21 10:12N 22°50' E 117°09'914.2
2014-Aug-21 09:33N 22°46' E 117°00'2014.2
2014-Aug-21 08:10N 22°38' E 116°40'914.3
2014-Aug-21 07:33N 22°35' E 116°32'12413.8
2014-Aug-20 22:32N 22°34' E 114°17'1 1.5
2014-Aug-20 21:33N 22°34' E 114°16'0 0.0
2014-Aug-20 20:31N 22°34' E 114°16'0 0.0
2014-Aug-20 19:29N 22°34' E 114°16'0 0.0
2014-Aug-20 18:33N 22°34' E 114°16'0 0.0
2014-Aug-20 17:33N 22°34' E 114°16'0 0.0
2014-Aug-20 16:30N 22°34' E 114°16'0 0.0
2014-Aug-20 15:33N 22°34' E 114°16'0 0.0
2014-Aug-20 14:33N 22°34' E 114°16'0 0.0
2014-Aug-20 13:33N 22°34' E 114°16'25 7.2
2014-Aug-20 10:08N 22°10' E 114°12'711.2
2014-Aug-20 09:33N 22°15' E 114°07'5 0.4
2014-Aug-19 21:10N 22°19' E 114°07'339 6.7
2014-Aug-17 18:33N 22°33' E 120°14'6 5.8
2014-Aug-17 17:33N 22°33' E 120°20'0 0.2
2014-Aug-17 16:27N 22°33' E 120°20'0 0.1
2014-Aug-17 15:33N 22°33' E 120°20'0 0.1
2014-Aug-17 14:33N 22°33' E 120°20'0 0.1
2014-Aug-17 13:30N 22°33' E 120°20'0 0.1
2014-Aug-17 12:30N 22°33' E 120°20'0 0.0
2014-Aug-17 09:18N 22°33' E 120°20'0 0.1
2014-Aug-17 08:29N 22°33' E 120°20'0 0.0
2014-Aug-17 07:17N 22°33' E 120°20'0 0.1
2014-Aug-17 06:29N 22°33' E 120°20'0 0.0
2014-Aug-17 05:29N 22°33' E 120°20'0 0.1
2014-Aug-17 04:29N 22°33' E 120°20'0 0.1
2014-Aug-17 03:29N 22°33' E 120°20'0 0.1
2014-Aug-17 02:23N 22°33' E 120°20'0 0.1
2014-Aug-17 01:33N 22°33' E 120°20'0 0.1
2014-Aug-17 00:33N 22°33' E 120°20'  
Track history (hours):
 
Tides and Currents Weather Stations Pressure Air Temp Water Temp Dewpoint Dewpoint Depression Visibility Wind Speed Wind Dir Waves Ship Positions

Ever Decent

Last reported at 2014-Aug-27 00:00 UTC. Time now 2014-Aug-27 19:14 UTC.
Position N 36°42' E 133°24'.

Length 294 m; draft 12 m.

Type: Cargo ship. MMSI: 564904000.

Wind from 050 at 13 knots

Waves 2.0 meters (7 feet), 5 second period

Barometer 1015.0 mb
Air temperature 24.0 ° C
Visibility: greater than 5.4 NM
Dewpoint 21.1 ° C
Water temperature 20.0 ° C

Date/timePositionNaut miles runAvg speedWind from/ knotsBaromVisibWave heightAir tempDewpointWater temp
2014-Aug-27 00:00N 36°42' E 133°24'60517.5 050 / 131015.0 5.4 2.024.021.120.0
2014-Aug-25 13:29N 30°54' E 123°29'1617.1
2014-Aug-25 12:32N 30°42' E 123°15'1515.5
2014-Aug-25 11:33N 30°40' E 122°58'1414.1
2014-Aug-25 10:33N 30°29' E 122°47'1514.9
2014-Aug-25 09:33N 30°30' E 122°29'1514.2
2014-Aug-25 08:32N 30°33' E 122°13'8 8.1
2014-Aug-25 07:33N 30°37' E 122°04'0 0.0
2014-Aug-25 06:26N 30°37' E 122°04'0 0.0
2014-Aug-25 04:24N 30°37' E 122°04'0 0.0
2014-Aug-25 01:21N 30°37' E 122°04'0 0.0
2014-Aug-24 23:13N 30°37' E 122°04'0 0.0
2014-Aug-24 19:24N 30°37' E 122°04'4 4.3
2014-Aug-24 18:32N 30°35' E 122°08'9 9.0
2014-Aug-24 17:33N 30°33' E 122°18'1010.0
2014-Aug-24 16:33N 30°30' E 122°29'3 2.2
2014-Aug-24 15:24N 30°28' E 122°31'0 0.2
2014-Aug-24 14:30N 30°28' E 122°31'0 0.1
2014-Aug-24 13:30N 30°28' E 122°31'0 0.1
2014-Aug-24 12:24N 30°28' E 122°31'0 0.1
2014-Aug-24 11:24N 30°28' E 122°31'0 0.3
2014-Aug-24 10:30N 30°28' E 122°31'0 0.1
2014-Aug-24 09:18N 30°28' E 122°31'0 0.0
2014-Aug-24 08:30N 30°28' E 122°31'0 0.0
2014-Aug-24 07:18N 30°28' E 122°31'0 0.0
2014-Aug-24 06:30N 30°28' E 122°31'0 0.1
2014-Aug-24 05:30N 30°28' E 122°31'0 0.1
2014-Aug-24 04:30N 30°28' E 122°31'0 0.3
2014-Aug-24 03:24N 30°28' E 122°31'0 0.1
2014-Aug-24 02:33N 30°28' E 122°31'0 0.1
2014-Aug-24 01:33N 30°28' E 122°31'2 1.7
2014-Aug-24 00:33N 30°29' E 122°33'1212.3
2014-Aug-23 23:33N 30°26' E 122°47'1313.5
2014-Aug-23 22:33N 30°18' E 122°59'1210.7
2014-Aug-23 21:27N 30°07' E 122°60'1112.1
2014-Aug-23 20:33N 29°56' E 122°56'1312.5
2014-Aug-23 19:30N 29°46' E 122°47'39 2.5
2014-Aug-23 03:34N 29°53' E 122°03'7 7.4
2014-Aug-23 02:33N 29°53' E 122°11'1110.7
2014-Aug-23 01:33N 29°45' E 122°20'6 6.5
2014-Aug-23 00:33N 29°45' E 122°27'7 6.5
2014-Aug-22 23:33N 29°40' E 122°32'8 8.0
2014-Aug-22 22:32N 29°32' E 122°33'1313.8
2014-Aug-22 21:33N 29°18' E 122°34'14112.7
2014-Aug-22 10:28N 27°09' E 121°29'13615.3
2014-Aug-22 01:33N 25°14' E 120°09'4214.2
2014-Aug-21 22:33N 24°41' E 119°39'4514.5
2014-Aug-21 19:27N 24°11' E 119°02'1314.5
2014-Aug-21 18:33N 24°03' E 118°51'1414.5
2014-Aug-21 17:33N 23°53' E 118°39'1414.1
2014-Aug-21 16:33N 23°44' E 118°27'1313.4
2014-Aug-21 15:33N 23°35' E 118°17'1513.9
2014-Aug-21 14:27N 23°25' E 118°04'1213.6
2014-Aug-21 13:33N 23°18' E 117°53'3114.7
2014-Aug-21 11:25N 23°01' E 117°25'1814.5
2014-Aug-21 10:12N 22°50' E 117°09'914.2
2014-Aug-21 09:33N 22°46' E 117°00'2014.2
2014-Aug-21 08:10N 22°38' E 116°40'914.3
2014-Aug-21 07:33N 22°35' E 116°32'12413.8
2014-Aug-20 22:32N 22°34' E 114°17'1 1.5
2014-Aug-20 21:33N 22°34' E 114°16'0 0.0
2014-Aug-20 20:31N 22°34' E 114°16'0 0.0
2014-Aug-20 19:29N 22°34' E 114°16'0 0.0
2014-Aug-20 18:33N 22°34' E 114°16'0 0.0
2014-Aug-20 17:33N 22°34' E 114°16'0 0.0
2014-Aug-20 16:30N 22°34' E 114°16'0 0.0
2014-Aug-20 15:33N 22°34' E 114°16'0 0.0
2014-Aug-20 14:33N 22°34' E 114°16'0 0.0
2014-Aug-20 13:33N 22°34' E 114°16'25 7.2
2014-Aug-20 10:08N 22°10' E 114°12'711.2
2014-Aug-20 09:33N 22°15' E 114°07'5 0.4
2014-Aug-19 21:10N 22°19' E 114°07'339 6.7
2014-Aug-17 18:33N 22°33' E 120°14'6 5.8
2014-Aug-17 17:33N 22°33' E 120°20'0 0.2
2014-Aug-17 16:27N 22°33' E 120°20'0 0.1
2014-Aug-17 15:33N 22°33' E 120°20'0 0.1
2014-Aug-17 14:33N 22°33' E 120°20'0 0.1
2014-Aug-17 13:30N 22°33' E 120°20'0 0.1
2014-Aug-17 12:30N 22°33' E 120°20'0 0.0
2014-Aug-17 09:18N 22°33' E 120°20'0 0.1
2014-Aug-17 08:29N 22°33' E 120°20'0 0.0
2014-Aug-17 07:17N 22°33' E 120°20'0 0.1
2014-Aug-17 06:29N 22°33' E 120°20'0 0.0
2014-Aug-17 05:29N 22°33' E 120°20'0 0.1
2014-Aug-17 04:29N 22°33' E 120°20'0 0.1
2014-Aug-17 03:29N 22°33' E 120°20'0 0.1
2014-Aug-17 02:23N 22°33' E 120°20'0 0.1
2014-Aug-17 01:33N 22°33' E 120°20'0 0.1
2014-Aug-17 00:33N 22°33' E 120°20'  

Dump ship's entire track history